Pagina principală
METAR-TAF:

METAR-TAF

Aeroporturi :

Egilsstaðir, Islanda

Latitudine: 65-17N, longitudine: 014-24W, elevație: 23 m

Observații meteo curente

Raportul a fost făcut în urmă cu 51 de minute, la 05:00 UTC
Vânt 3 kt de la Sud
Temperatură -3°C
Umiditate 100%
Presiune 974 hPa
Vizibilitate: 4000 m
zăpadă slabă,

METAR: BIEG 230500Z 18003KT 4000 -SN VV006 M03/M03 Q0974

Ora: 05:51 (05:51 UTC)

Prognoză

Raportul a fost făcut în urmă cu 1 oră și 44 de minute, la 04:07 UTC
Prognoză valabilă de la 23 ora 06 UTC la 24 ora 06 UTC
Vânt 7 kt de la Nord
Vizibilitate de 10 km sau mai mult
Nori împrăștiați la o înălțime de 4000 picior
Probabilitate 40% :
Temporar
de la 23 ora 06 UTC la 24 ora 06 UTC
Vizibilitate: 3500 m
Nori fragmentați la o înălțime de 800 picior
averse de zăpadă slabă,

TAF: BIEG 230407Z 2306/2406 35007KT 9999 SCT040 TX01/2314Z TNM02/2306Z PROB40 TEMPO 2306/2406 3500 -SHSN BKN008

Observații și prognoze meteo pentru peste 4.000 de aeroporturi (rapoarte METAR și TAF).

Stațiile disponibile sunt reprezentate pe hartă prin puncte galbene și roșii.

Țineți indicatorul mouse-ului pe punctul dorit pentru a vedea denumirea stației.

Apoi, faceți clic pentru a vedea observațiile și prognozele meteorologice.

Pentru a schimba harta: Pentru mărire, faceți clic pe butoanele verzi cu cruce neagră; pentru micșorare, pe butonul verde cu o liniuță; pentru hărți învecinate, pe săgețile verzi.


METAR-TAF: